Acamar — FICN — position and weather

sailwx.info

Track history (hours):
 
Tides and Currents Weather Stations Pressure Air Temp Water Temp Dewpoint Dewpoint Depression Visibility Wind Speed Wind Dir Waves Ship Positions

Acamar

Last reported at 2017-Oct-17 15:30 UTC. Time now 2017-Oct-17 15:41 UTC.
Position N 50°19' E 000°00'.

Length 184 m; draft 11.5 m.

Type: Tanker. MMSI: 226019000.

Date/timePositionNaut miles runAvg speedWind from/ knotsBaromVisibWave heightAir tempDewpointWater temp
2017-Oct-17 15:30N 50°19' E 000°00'612.5
2017-Oct-17 15:00N 50°18' W 000°09'612.2
2017-Oct-17 14:30N 50°16' W 000°18'611.8
2017-Oct-17 14:00N 50°14' W 000°27'611.4
2017-Oct-17 13:30N 50°13' W 000°36'611.2
2017-Oct-17 12:57N 50°11' W 000°45'510.9
2017-Oct-17 12:30N 50°10' W 000°53'510.8
2017-Oct-17 12:00N 50°09' W 001°00'710.8
2017-Oct-17 11:23N 50°07' W 001°11'511.1
2017-Oct-17 10:58N 50°06' W 001°18'611.5
2017-Oct-17 10:28N 50°04' W 001°26'712.1
2017-Oct-17 09:54N 50°03' W 001°37'512.7
2017-Oct-17 09:30N 50°01' W 001°44'813.5
2017-Oct-17 08:56N 49°59' W 001°56'1814.4
2017-Oct-17 07:40N 49°54' W 002°23'414.7
2017-Oct-17 07:24N 49°53' W 002°29'1114.7
2017-Oct-17 06:37N 49°50' W 002°46'214.7
2017-Oct-17 06:29N 49°49' W 002°49'1414.6
2017-Oct-17 05:30N 49°43' W 003°08'714.4
2017-Oct-17 05:00N 49°39' W 003°18'4714.2
2017-Oct-17 01:42N 49°16' W 004°21'313.7
2017-Oct-17 01:29N 49°14' W 004°25'713.6
2017-Oct-17 00:58N 49°11' W 004°34'1013.3
2017-Oct-17 00:11N 49°06' W 004°48'513.2
2017-Oct-16 23:50N 49°03' W 004°54'412.6
2017-Oct-16 23:29N 49°01' W 005°00'612.5
2017-Oct-16 23:00N 48°59' W 005°08'712.2
2017-Oct-16 22:27N 48°56' W 005°18'511.8
2017-Oct-16 22:00N 48°53' W 005°24'711.5
2017-Oct-16 21:23N 48°49' W 005°33'410.9
2017-Oct-16 21:00N 48°46' W 005°37'610.8
2017-Oct-16 20:30N 48°41' W 005°41'510.4
2017-Oct-16 20:00N 48°36' W 005°44'510.0
2017-Oct-16 19:30N 48°31' W 005°43'5 9.8
2017-Oct-16 19:00N 48°26' W 005°41'5 9.7
2017-Oct-16 18:29N 48°21' W 005°39'5 9.5
2017-Oct-16 17:59N 48°17' W 005°37'5 9.5
2017-Oct-16 17:30N 48°13' W 005°35'5 9.6
2017-Oct-16 17:00N 48°08' W 005°33'5 9.7
2017-Oct-16 16:30N 48°03' W 005°31'5 9.9
2017-Oct-16 15:58N 47°58' W 005°29'4 8.9
2017-Oct-16 15:28N 47°54' W 005°26'4 9.1
2017-Oct-16 15:00N 47°52' W 005°20'4 8.6
2017-Oct-16 14:30N 47°50' W 005°15'7 6.6
2017-Oct-16 13:30N 47°47' W 005°06'5 9.0
2017-Oct-16 13:00N 47°45' W 005°00'5 9.3
2017-Oct-16 12:30N 47°42' W 004°54'5 9.3
2017-Oct-16 12:00N 47°40' W 004°48'2611.0
2017-Oct-16 09:36N 47°26' W 004°15'211.7
2017-Oct-16 09:25N 47°25' W 004°12'512.0
2017-Oct-16 08:59N 47°23' W 004°05'612.5
2017-Oct-16 08:30N 47°20' W 003°58'612.6
2017-Oct-16 08:00N 47°16' W 003°50'612.5
2017-Oct-16 07:30N 47°13' W 003°42'612.7
2017-Oct-16 07:00N 47°10' W 003°33'712.9
2017-Oct-16 06:30N 47°07' W 003°25'713.0
2017-Oct-16 05:59N 47°05' W 003°15'613.2
2017-Oct-16 05:30N 47°05' W 003°06'713.4
2017-Oct-16 05:00N 47°03' W 002°57'713.5
2017-Oct-16 04:31N 47°02' W 002°47'713.4
2017-Oct-16 03:59N 47°02' W 002°37'613.3
2017-Oct-16 03:30N 47°04' W 002°28'612.4
2017-Oct-16 03:00N 47°08' W 002°21'5 9.8
2017-Oct-16 02:30N 47°12' W 002°17'713.3
2017-Oct-16 02:00N 47°17' W 002°10'3 6.5
2017-Oct-16 01:30N 47°18' W 002°06'0 0.1
2017-Oct-15 23:51N 47°18' W 002°06'0 0.0
2017-Oct-15 23:30N 47°18' W 002°06'0 0.0
2017-Oct-15 23:00N 47°18' W 002°06'0 0.0
2017-Oct-15 22:27N 47°18' W 002°06'0 0.0
2017-Oct-15 21:48N 47°18' W 002°06'0 0.0
2017-Oct-15 21:24N 47°18' W 002°06'0 0.0
2017-Oct-15 20:42N 47°18' W 002°06'0 0.0
2017-Oct-15 20:30N 47°18' W 002°06'0 0.0
2017-Oct-15 19:54N 47°18' W 002°06'0 0.0
2017-Oct-15 19:30N 47°18' W 002°06'0 0.0
2017-Oct-15 18:48N 47°18' W 002°06'0 0.0
2017-Oct-15 18:27N 47°18' W 002°06'0 0.0
2017-Oct-15 18:00N 47°18' W 002°06'0 0.0
2017-Oct-15 17:30N 47°18' W 002°06'0 0.0
2017-Oct-15 17:00N 47°18' W 002°06'0 0.0
2017-Oct-15 16:30N 47°18' W 002°06'0 0.0
2017-Oct-15 15:57N 47°18' W 002°06'0 0.0
2017-Oct-15 15:30N 47°18' W 002°06'0 0.0
2017-Oct-15 14:57N 47°18' W 002°06'0 0.0
2017-Oct-15 14:00N 47°18' W 002°06'0 0.0
2017-Oct-15 13:27N 47°18' W 002°06'0 0.0
2017-Oct-15 12:54N 47°18' W 002°06'0 0.0
2017-Oct-15 12:21N 47°18' W 002°06'0 0.0
2017-Oct-15 11:57N 47°18' W 002°06'0 0.0
2017-Oct-15 11:30N 47°18' W 002°06'0 0.0
2017-Oct-15 11:00N 47°18' W 002°06'0 0.0
2017-Oct-15 09:09N 47°18' W 002°06'0 0.0
2017-Oct-15 09:00N 47°18' W 002°06'0 0.0
2017-Oct-15 08:24N 47°18' W 002°06'0 0.0
2017-Oct-15 07:54N 47°18' W 002°06'0 0.0
2017-Oct-15 07:30N 47°18' W 002°06'0 0.0
2017-Oct-15 07:00N 47°18' W 002°06'0 0.0
2017-Oct-15 06:24N 47°18' W 002°06'0 0.0
2017-Oct-15 06:00N 47°18' W 002°06'0 0.0
2017-Oct-15 05:30N 47°18' W 002°06'0 0.0
2017-Oct-15 05:00N 47°18' W 002°06'0 0.0
2017-Oct-15 04:30N 47°18' W 002°06'0 0.0
2017-Oct-15 04:00N 47°18' W 002°06'0 0.0
2017-Oct-15 03:24N 47°18' W 002°06'0 0.0
2017-Oct-15 02:45N 47°18' W 002°06'0 0.0
2017-Oct-15 02:30N 47°18' W 002°06'0 0.0
2017-Oct-15 01:48N 47°18' W 002°06'0 0.0
2017-Oct-15 01:18N 47°18' W 002°06'0 0.0
2017-Oct-15 01:00N 47°18' W 002°06'0 0.0
2017-Oct-15 00:30N 47°18' W 002°06'0 0.0
2017-Oct-15 00:00N 47°18' W 002°06'0 0.0
2017-Oct-14 23:30N 47°18' W 002°06'0 0.0
2017-Oct-14 21:48N 47°18' W 002°06'0 0.0
2017-Oct-14 21:24N 47°18' W 002°06'0 0.0
2017-Oct-14 21:00N 47°18' W 002°06'0 0.0
2017-Oct-14 20:24N 47°18' W 002°06'0 0.0
2017-Oct-14 20:00N 47°18' W 002°06'0 0.0
2017-Oct-14 19:30N 47°18' W 002°06'0 0.0
2017-Oct-14 19:00N 47°18' W 002°06'0 0.0
2017-Oct-14 18:24N 47°18' W 002°06'0 0.0
2017-Oct-14 17:54N 47°18' W 002°06'0 0.0
2017-Oct-14 17:27N 47°18' W 002°06'0 0.0
2017-Oct-14 16:18N 47°18' W 002°06'0 0.0
2017-Oct-14 15:42N 47°18' W 002°06'0 0.0
2017-Oct-14 15:15N 47°18' W 002°06'0 0.0
2017-Oct-14 15:00N 47°18' W 002°06'0 0.0
2017-Oct-14 14:24N 47°18' W 002°06'0 0.0
2017-Oct-14 13:51N 47°18' W 002°06'0 0.0
2017-Oct-14 13:30N 47°18' W 002°06'0 0.0
2017-Oct-14 12:57N 47°18' W 002°06'0 0.0
2017-Oct-14 12:27N 47°18' W 002°06'0 0.0
2017-Oct-14 11:45N 47°18' W 002°06'0 0.0
2017-Oct-14 11:12N 47°18' W 002°06'0 0.0
2017-Oct-14 10:57N 47°18' W 002°06'0 0.0
2017-Oct-14 09:48N 47°18' W 002°06'0 0.0
2017-Oct-14 09:09N 47°18' W 002°06'0 0.0
2017-Oct-14 09:00N 47°18' W 002°06'0 0.0
2017-Oct-14 08:30N 47°18' W 002°06'0 0.0
2017-Oct-14 08:00N 47°18' W 002°06'0 0.0
2017-Oct-14 07:30N 47°18' W 002°06'0 0.0
2017-Oct-14 07:00N 47°18' W 002°06'0 0.0
2017-Oct-14 06:30N 47°18' W 002°06'0 0.0
2017-Oct-14 06:00N 47°18' W 002°06'0 0.0
2017-Oct-14 05:30N 47°18' W 002°06'0 0.0
2017-Oct-14 04:57N 47°18' W 002°06'0 0.0
2017-Oct-14 04:27N 47°18' W 002°06'0 0.0
2017-Oct-14 03:57N 47°18' W 002°06'0 0.0
2017-Oct-14 03:30N 47°18' W 002°06'0 0.0
2017-Oct-14 02:57N 47°18' W 002°06'0 0.0
2017-Oct-14 02:30N 47°18' W 002°06'0 0.0
2017-Oct-14 02:00N 47°18' W 002°06'0 0.0
2017-Oct-14 01:24N 47°18' W 002°06'0 0.0
2017-Oct-14 00:54N 47°18' W 002°06'0 0.0
2017-Oct-14 00:30N 47°18' W 002°06'0 0.0
2017-Oct-13 23:36N 47°18' W 002°06'0 0.0
2017-Oct-13 23:30N 47°18' W 002°06'0 0.0
2017-Oct-13 23:00N 47°18' W 002°06'0 0.1
2017-Oct-13 22:30N 47°18' W 002°06'3 5.2
2017-Oct-13 22:00N 47°18' W 002°09'612.0
2017-Oct-13 21:31N 47°14' W 002°16'713.1
2017-Oct-13 21:00N 47°08' W 002°21'5 9.1
2017-Oct-13 20:30N 47°08' W 002°28'0 0.4
2017-Oct-13 19:58N 47°08' W 002°28'0 0.0
2017-Oct-13 19:28N 47°08' W 002°28'0 0.0
2017-Oct-13 18:58N 47°08' W 002°28'0 0.0
2017-Oct-13 18:28N 47°08' W 002°28'0 0.0
2017-Oct-13 17:58N 47°08' W 002°28'0 0.0
2017-Oct-13 17:28N 47°08' W 002°28'0 0.0
2017-Oct-13 16:58N 47°08' W 002°28'0 0.2
2017-Oct-13 16:28N 47°08' W 002°28'0 0.2
2017-Oct-13 15:58N 47°08' W 002°28'0 0.1
2017-Oct-13 15:28N 47°08' W 002°28'0 0.0
2017-Oct-13 14:58N 47°08' W 002°28'0 0.0
2017-Oct-13 14:28N 47°08' W 002°28'0 0.0
2017-Oct-13 13:58N 47°08' W 002°28'0 0.0
2017-Oct-13 13:25N 47°08' W 002°28'0 0.0
2017-Oct-13 12:58N 47°08' W 002°28'0 0.1
2017-Oct-13 12:28N 47°08' W 002°28'0 0.1
2017-Oct-13 11:58N 47°08' W 002°28'0 0.2
2017-Oct-13 11:28N 47°08' W 002°28'0 0.1
2017-Oct-13 10:58N 47°08' W 002°28'0 0.0
2017-Oct-13 10:25N 47°08' W 002°28'0 0.0
2017-Oct-13 09:58N 47°08' W 002°28'0 0.0
2017-Oct-13 09:28N 47°08' W 002°28'0 0.0
2017-Oct-13 08:58N 47°08' W 002°28'0 0.0
2017-Oct-13 08:28N 47°08' W 002°28'0 0.0
2017-Oct-13 07:58N 47°08' W 002°28'0 0.0
2017-Oct-13 07:28N 47°08' W 002°28'0 0.0
2017-Oct-13 06:52N 47°08' W 002°28'0 0.1
2017-Oct-13 06:28N 47°08' W 002°28'0 0.0
2017-Oct-13 05:55N 47°08' W 002°28'0 0.0
2017-Oct-13 05:28N 47°08' W 002°28'0 0.0
2017-Oct-13 04:58N 47°08' W 002°28'0 0.0
2017-Oct-13 04:28N 47°08' W 002°28'0 0.1
2017-Oct-13 03:52N 47°08' W 002°28'0 0.2
2017-Oct-13 03:25N 47°08' W 002°28'0 0.1
2017-Oct-13 02:58N 47°08' W 002°28'0 0.0
2017-Oct-13 02:25N 47°08' W 002°28'0 0.1
2017-Oct-13 01:55N 47°08' W 002°28'0 0.1
2017-Oct-13 01:28N 47°08' W 002°28'0 0.1
2017-Oct-13 00:58N 47°08' W 002°28'0 0.0
2017-Oct-13 00:28N 47°08' W 002°28'0 0.1
2017-Oct-12 23:58N 47°08' W 002°28'0 0.1
2017-Oct-12 23:28N 47°08' W 002°28'0 0.0
2017-Oct-12 22:58N 47°08' W 002°28'0 0.0
2017-Oct-12 22:28N 47°08' W 002°28'0 0.0
2017-Oct-12 21:58N 47°08' W 002°28'0 0.0
2017-Oct-12 21:28N 47°08' W 002°28'0 0.0
2017-Oct-12 20:58N 47°08' W 002°28'0 0.0
2017-Oct-12 20:28N 47°08' W 002°28'0 0.0
2017-Oct-12 19:58N 47°08' W 002°28'0 0.0
2017-Oct-12 19:28N 47°08' W 002°28'0 0.0
2017-Oct-12 18:58N 47°08' W 002°28'0 0.0
2017-Oct-12 18:28N 47°08' W 002°28'0 0.0
2017-Oct-12 17:58N 47°08' W 002°28'0 0.2
2017-Oct-12 17:30N 47°08' W 002°28'3 5.9
2017-Oct-12 17:00N 47°07' W 002°32'713.8
2017-Oct-12 16:30N 47°04' W 002°41'713.0
2017-Oct-12 16:00N 47°02' W 002°50'713.4
2017-Oct-12 15:31N 47°02' W 002°60'713.9
2017-Oct-12 15:00N 47°04' W 003°10'713.1
2017-Oct-12 14:30N 47°06' W 003°19'612.7
2017-Oct-12 14:00N 47°09' W 003°27'612.9
2017-Oct-12 13:30N 47°12' W 003°36'612.7
2017-Oct-12 13:00N 47°15' W 003°44'713.0
2017-Oct-12 12:30N 47°18' W 003°53'713.3
2017-Oct-12 12:00N 47°20' W 004°01'713.5
2017-Oct-12 11:30N 47°23' W 004°10'713.9
2017-Oct-12 11:00N 47°28' W 004°18'2014.2
2017-Oct-12 09:34N 47°39' W 004°44'314.3
2017-Oct-12 09:22N 47°40' W 004°48'514.1
2017-Oct-12 09:00N 47°42' W 004°54'713.9
2017-Oct-12 08:30N 47°46' W 005°03'813.4
2017-Oct-12 07:57N 47°49' W 005°13'813.4
2017-Oct-12 07:22N 47°54' W 005°23'513.1
2017-Oct-12 07:01N 47°56' W 005°29'813.3
2017-Oct-12 06:26N 47°59' W 005°39'512.7
2017-Oct-12 06:00N 48°04' W 005°44'612.7
2017-Oct-12 05:30N 48°10' W 005°46'613.0
2017-Oct-12 05:00N 48°16' W 005°48'1013.2
2017-Oct-12 04:16N 48°26' W 005°52'413.3
2017-Oct-12 04:00N 48°29' W 005°53'713.6
2017-Oct-12 03:29N 48°36' W 005°55'1513.3
2017-Oct-12 02:24N 48°50' W 005°48'813.6
2017-Oct-12 01:50N 48°56' W 005°41'513.8
2017-Oct-12 01:28N 48°58' W 005°35'1412.2
2017-Oct-12 00:20N 49°06' W 005°17'611.8
2017-Oct-11 23:51N 49°09' W 005°09'512.6
2017-Oct-11 23:25N 49°10' W 005°01'512.8
2017-Oct-11 23:00N 49°13' W 004°55'612.5
2017-Oct-11 22:30N 49°17' W 004°47'4111.7
2017-Oct-11 19:00N 49°37' W 003°52'912.5
2017-Oct-11 18:15N 49°43' W 003°40'312.8
2017-Oct-11 18:00N 49°44' W 003°36'612.9
2017-Oct-11 17:30N 49°48' W 003°28'713.2
2017-Oct-11 16:58N 49°51' W 003°18'19911.7
2017-Oct-11 00:00N 51°06' E 001°32'714.8
2017-Oct-10 23:30N 51°11' E 001°41'715.0
2017-Oct-10 23:00N 51°16' E 001°49'714.8
2017-Oct-10 22:30N 51°23' E 001°53'714.2
2017-Oct-10 22:01N 51°28' E 002°01'713.5
2017-Oct-10 21:30N 51°34' E 002°08'613.0
2017-Oct-10 21:00N 51°38' E 002°15'612.6
2017-Oct-10 20:30N 51°43' E 002°22'3911.2
2017-Oct-10 16:58N 52°04' E 003°16'611.8
2017-Oct-10 16:30N 52°04' E 003°25'611.6
2017-Oct-10 16:00N 52°04' E 003°34'510.5
2017-Oct-10 15:30N 52°08' E 003°41'1 2.1
2017-Oct-10 14:58N 52°09' E 003°41'0 0.0
2017-Oct-10 13:55N 52°09' E 003°41'0 0.1
2017-Oct-10 12:40N 52°09' E 003°41'0 0.1
2017-Oct-10 12:28N 52°09' E 003°41'0 0.1
2017-Oct-10 11:58N 52°09' E 003°41'2 5.1
2017-Oct-10 11:30N 52°07' E 003°43'510.1
2017-Oct-10 11:00N 52°03' E 003°49'4 8.2
2017-Oct-10 10:30N 52°02' E 003°55'714.0
2017-Oct-10 10:00N 51°59' E 004°06'5 9.1
2017-Oct-10 09:31N 51°56' E 004°12'1 1.1
2017-Oct-10 09:00N 51°56' E 004°12'0 0.0
2017-Oct-10 08:30N 51°56' E 004°12'0 0.0
2017-Oct-10 08:00N 51°56' E 004°12'0 0.0
2017-Oct-10 07:30N 51°56' E 004°12'0 0.0
2017-Oct-10 07:00N 51°56' E 004°12'0 0.0
2017-Oct-10 06:30N 51°56' E 004°12'0 0.0
2017-Oct-10 06:00N 51°56' E 004°12'0 0.0
2017-Oct-10 05:30N 51°56' E 004°12'0 0.0
2017-Oct-10 04:57N 51°56' E 004°12'0 0.0
2017-Oct-10 04:27N 51°56' E 004°12'0 0.0
2017-Oct-10 04:00N 51°56' E 004°12'0 0.0
2017-Oct-10 03:30N 51°56' E 004°12'0 0.0
2017-Oct-10 02:57N 51°56' E 004°12'0 0.0
2017-Oct-10 02:30N 51°56' E 004°12'0 0.0
2017-Oct-10 01:57N 51°56' E 004°12'0 0.0
2017-Oct-10 01:30N 51°56' E 004°12'0 0.0
2017-Oct-10 01:00N 51°56' E 004°12'0 0.0
2017-Oct-10 00:30N 51°56' E 004°12'0 0.0
2017-Oct-10 00:00N 51°56' E 004°12'0 0.0
2017-Oct-09 23:30N 51°56' E 004°12'0 0.0
2017-Oct-09 23:00N 51°56' E 004°12'0 0.0
2017-Oct-09 22:30N 51°56' E 004°12'0 0.0
2017-Oct-09 21:57N 51°56' E 004°12'0 0.0
2017-Oct-09 21:24N 51°56' E 004°12'0 0.0
2017-Oct-09 21:00N 51°56' E 004°12'0 0.0
2017-Oct-09 20:30N 51°56' E 004°12'0 0.0
2017-Oct-09 20:00N 51°56' E 004°12'0 0.0
2017-Oct-09 19:30N 51°56' E 004°12'0 0.0
2017-Oct-09 19:00N 51°56' E 004°12'0 0.0
2017-Oct-09 18:27N 51°56' E 004°12'0 0.0
2017-Oct-09 18:00N 51°56' E 004°12'0 0.0
2017-Oct-09 17:30N 51°56' E 004°12'0 0.0
2017-Oct-09 17:00N 51°56' E 004°12'0 0.0
2017-Oct-09 16:30N 51°56' E 004°12'0 0.0
2017-Oct-09 16:00N 51°56' E 004°12'0 0.0
2017-Oct-09 15:30N 51°56' E 004°12'0 0.0
2017-Oct-09 15:00N 51°56' E 004°12'0 0.0
2017-Oct-09 14:30N 51°56' E 004°12'0 0.0
2017-Oct-09 14:00N 51°56' E 004°12'0 0.0
2017-Oct-09 13:30N 51°56' E 004°12'0 0.0
2017-Oct-09 13:00N 51°56' E 004°12'0 0.0
2017-Oct-09 12:30N 51°56' E 004°12'0 0.0
2017-Oct-09 12:00N 51°56' E 004°12'0 0.0
2017-Oct-09 11:30N 51°56' E 004°12'0 0.0
2017-Oct-09 10:57N 51°56' E 004°12'0 0.3
2017-Oct-09 10:31N 51°56' E 004°12'3 6.3
2017-Oct-09 10:00N 51°58' E 004°08'510.2
2017-Oct-09 09:30N 51°60' E 004°00'611.5
2017-Oct-09 09:00N 51°60' E 003°51'3 5.6
2017-Oct-09 08:30N 51°58' E 003°47'1 1.2
2017-Oct-09 07:52N 51°57' E 003°47'0 0.1
2017-Oct-09 07:28N 51°57' E 003°47'0 0.1
2017-Oct-09 06:43N 51°57' E 003°47'0 0.0
2017-Oct-09 06:19N 51°57' E 003°47'0 0.0
2017-Oct-09 05:58N 51°57' E 003°47'0 0.0
2017-Oct-09 05:28N 51°57' E 003°47'0 0.0
2017-Oct-09 04:58N 51°57' E 003°47'0 0.0
2017-Oct-09 04:28N 51°57' E 003°47'0 0.0
2017-Oct-09 03:58N 51°57' E 003°47'0 0.0
2017-Oct-09 03:22N 51°57' E 003°47'0 0.0
2017-Oct-09 02:58N 51°57' E 003°47'0 0.0
2017-Oct-09 02:28N 51°57' E 003°47'0 0.3
2017-Oct-09 01:46N 51°57' E 003°47'0 0.1
2017-Oct-09 01:28N 51°57' E 003°47'0 0.0
2017-Oct-09 00:55N 51°57' E 003°47'0 0.0
2017-Oct-09 00:25N 51°57' E 003°47'0 0.0
2017-Oct-08 23:58N 51°57' E 003°47'0 0.0
2017-Oct-08 23:28N 51°57' E 003°47'0 0.0
2017-Oct-08 22:58N 51°57' E 003°47'0 0.0
2017-Oct-08 22:25N 51°57' E 003°47'0 0.0
2017-Oct-08 21:58N 51°57' E 003°47'0 0.0
2017-Oct-08 21:25N 51°57' E 003°47'0 0.0
2017-Oct-08 20:52N 51°57' E 003°47'0 0.0
2017-Oct-08 20:28N 51°57' E 003°47'0 0.1
2017-Oct-08 19:58N 51°57' E 003°47'0 0.2
2017-Oct-08 19:07N 51°57' E 003°47'0 0.2
2017-Oct-08 18:58N 51°57' E 003°47'0 0.1
2017-Oct-08 18:28N 51°57' E 003°47'0 0.0
2017-Oct-08 17:58N 51°57' E 003°47'0 0.0
2017-Oct-08 17:28N 51°57' E 003°47'0 0.0
2017-Oct-08 16:52N 51°57' E 003°47'0 0.0
2017-Oct-08 16:28N 51°57' E 003°47'0 0.0
2017-Oct-08 15:55N 51°57' E 003°47'0 0.1
2017-Oct-08 15:28N 51°57' E 003°47'0 0.0
2017-Oct-08 14:55N 51°57' E 003°47'0 0.1
2017-Oct-08 14:28N 51°57' E 003°47'0 0.3
2017-Oct-08 13:52N 51°57' E 003°47'0 0.3
2017-Oct-08 13:28N 51°57' E 003°47'0 0.1
2017-Oct-08 12:58N 51°57' E 003°47'0 0.1
2017-Oct-08 12:28N 51°57' E 003°47'0 0.0
2017-Oct-08 11:58N 51°57' E 003°47'0 0.0
2017-Oct-08 11:25N 51°57' E 003°47'0 0.0
2017-Oct-08 10:46N 51°57' E 003°47'0 0.0
2017-Oct-08 10:22N 51°57' E 003°47'0 0.0
2017-Oct-08 09:55N 51°57' E 003°47'0 0.0
2017-Oct-08 09:28N 51°57' E 003°47'0 0.0
2017-Oct-08 08:58N 51°57' E 003°47'0 0.1
2017-Oct-08 08:28N 51°57' E 003°47'0 0.1
2017-Oct-08 07:55N 51°57' E 003°47'0 0.1
2017-Oct-08 07:16N 51°57' E 003°47'0 0.1
2017-Oct-08 06:58N 51°57' E 003°47'0 0.0
2017-Oct-08 06:25N 51°57' E 003°47'0 0.1
2017-Oct-08 05:55N 51°57' E 003°47'0 0.1
2017-Oct-08 05:22N 51°57' E 003°47'0 0.1
2017-Oct-08 04:52N 51°57' E 003°47'0 0.0
2017-Oct-08 04:28N 51°57' E 003°47'0 0.0
2017-Oct-08 03:58N 51°57' E 003°47'0 0.0
2017-Oct-08 03:25N 51°57' E 003°47'0 0.1
2017-Oct-08 02:55N 51°57' E 003°47'0 0.1
2017-Oct-08 02:19N 51°57' E 003°47'0 0.2
2017-Oct-08 01:58N 51°57' E 003°47'0 0.1
2017-Oct-08 01:19N 51°57' E 003°47'0 0.1
2017-Oct-08 00:55N 51°57' E 003°47'0 0.1
2017-Oct-08 00:25N 51°57' E 003°47'0 0.1
2017-Oct-07 23:52N 51°57' E 003°47'0 0.1
2017-Oct-07 23:28N 51°57' E 003°47'0 0.0
2017-Oct-07 22:58N 51°57' E 003°47'0 0.1
2017-Oct-07 22:28N 51°57' E 003°47'0 0.0
2017-Oct-07 21:58N 51°57' E 003°47'0 0.0
2017-Oct-07 21:22N 51°57' E 003°47'0 0.1
2017-Oct-07 20:58N 51°57' E 003°47'0 0.1
2017-Oct-07 20:25N 51°57' E 003°47'0 0.1
2017-Oct-07 19:58N 51°57' E 003°47'0 0.1
2017-Oct-07 19:28N 51°57' E 003°47'0 0.0
2017-Oct-07 18:58N 51°57' E 003°47'0 0.1
2017-Oct-07 18:25N 51°57' E 003°47'0 0.1
2017-Oct-07 17:58N 51°57' E 003°47'0 0.1
2017-Oct-07 17:19N 51°57' E 003°47'0 0.1
2017-Oct-07 16:58N 51°57' E 003°47'0 0.0
2017-Oct-07 16:28N 51°57' E 003°47'0 0.0
2017-Oct-07 15:58N 51°57' E 003°47'  
Track history (hours):
 
Tides and Currents Weather Stations Pressure Air Temp Water Temp Dewpoint Dewpoint Depression Visibility Wind Speed Wind Dir Waves Ship Positions

Acamar

Last reported at 2017-Oct-17 15:30 UTC. Time now 2017-Oct-17 15:41 UTC.
Position N 50°19' E 000°00'.

Length 184 m; draft 11.5 m.

Type: Tanker. MMSI: 226019000.

Date/timePositionNaut miles runAvg speedWind from/ knotsBaromVisibWave heightAir tempDewpointWater temp
2017-Oct-17 15:30N 50°19' E 000°00'612.5
2017-Oct-17 15:00N 50°18' W 000°09'612.2
2017-Oct-17 14:30N 50°16' W 000°18'611.8
2017-Oct-17 14:00N 50°14' W 000°27'611.4
2017-Oct-17 13:30N 50°13' W 000°36'611.2
2017-Oct-17 12:57N 50°11' W 000°45'510.9
2017-Oct-17 12:30N 50°10' W 000°53'510.8
2017-Oct-17 12:00N 50°09' W 001°00'710.8
2017-Oct-17 11:23N 50°07' W 001°11'511.1
2017-Oct-17 10:58N 50°06' W 001°18'611.5
2017-Oct-17 10:28N 50°04' W 001°26'712.1
2017-Oct-17 09:54N 50°03' W 001°37'512.7
2017-Oct-17 09:30N 50°01' W 001°44'813.5
2017-Oct-17 08:56N 49°59' W 001°56'1814.4
2017-Oct-17 07:40N 49°54' W 002°23'414.7
2017-Oct-17 07:24N 49°53' W 002°29'1114.7
2017-Oct-17 06:37N 49°50' W 002°46'214.7
2017-Oct-17 06:29N 49°49' W 002°49'1414.6
2017-Oct-17 05:30N 49°43' W 003°08'714.4
2017-Oct-17 05:00N 49°39' W 003°18'4714.2
2017-Oct-17 01:42N 49°16' W 004°21'313.7
2017-Oct-17 01:29N 49°14' W 004°25'713.6
2017-Oct-17 00:58N 49°11' W 004°34'1013.3
2017-Oct-17 00:11N 49°06' W 004°48'513.2
2017-Oct-16 23:50N 49°03' W 004°54'412.6
2017-Oct-16 23:29N 49°01' W 005°00'612.5
2017-Oct-16 23:00N 48°59' W 005°08'712.2
2017-Oct-16 22:27N 48°56' W 005°18'511.8
2017-Oct-16 22:00N 48°53' W 005°24'711.5
2017-Oct-16 21:23N 48°49' W 005°33'410.9
2017-Oct-16 21:00N 48°46' W 005°37'610.8
2017-Oct-16 20:30N 48°41' W 005°41'510.4
2017-Oct-16 20:00N 48°36' W 005°44'510.0
2017-Oct-16 19:30N 48°31' W 005°43'5 9.8
2017-Oct-16 19:00N 48°26' W 005°41'5 9.7
2017-Oct-16 18:29N 48°21' W 005°39'5 9.5
2017-Oct-16 17:59N 48°17' W 005°37'5 9.5
2017-Oct-16 17:30N 48°13' W 005°35'5 9.6
2017-Oct-16 17:00N 48°08' W 005°33'5 9.7
2017-Oct-16 16:30N 48°03' W 005°31'5 9.9
2017-Oct-16 15:58N 47°58' W 005°29'4 8.9
2017-Oct-16 15:28N 47°54' W 005°26'4 9.1
2017-Oct-16 15:00N 47°52' W 005°20'4 8.6
2017-Oct-16 14:30N 47°50' W 005°15'7 6.6
2017-Oct-16 13:30N 47°47' W 005°06'5 9.0
2017-Oct-16 13:00N 47°45' W 005°00'5 9.3
2017-Oct-16 12:30N 47°42' W 004°54'5 9.3
2017-Oct-16 12:00N 47°40' W 004°48'2611.0
2017-Oct-16 09:36N 47°26' W 004°15'211.7
2017-Oct-16 09:25N 47°25' W 004°12'512.0
2017-Oct-16 08:59N 47°23' W 004°05'612.5
2017-Oct-16 08:30N 47°20' W 003°58'612.6
2017-Oct-16 08:00N 47°16' W 003°50'612.5
2017-Oct-16 07:30N 47°13' W 003°42'612.7
2017-Oct-16 07:00N 47°10' W 003°33'712.9
2017-Oct-16 06:30N 47°07' W 003°25'713.0
2017-Oct-16 05:59N 47°05' W 003°15'613.2
2017-Oct-16 05:30N 47°05' W 003°06'713.4
2017-Oct-16 05:00N 47°03' W 002°57'713.5
2017-Oct-16 04:31N 47°02' W 002°47'713.4
2017-Oct-16 03:59N 47°02' W 002°37'613.3
2017-Oct-16 03:30N 47°04' W 002°28'612.4
2017-Oct-16 03:00N 47°08' W 002°21'5 9.8
2017-Oct-16 02:30N 47°12' W 002°17'713.3
2017-Oct-16 02:00N 47°17' W 002°10'3 6.5
2017-Oct-16 01:30N 47°18' W 002°06'0 0.1
2017-Oct-15 23:51N 47°18' W 002°06'0 0.0
2017-Oct-15 23:30N 47°18' W 002°06'0 0.0
2017-Oct-15 23:00N 47°18' W 002°06'0 0.0
2017-Oct-15 22:27N 47°18' W 002°06'0 0.0
2017-Oct-15 21:48N 47°18' W 002°06'0 0.0
2017-Oct-15 21:24N 47°18' W 002°06'0 0.0
2017-Oct-15 20:42N 47°18' W 002°06'0 0.0
2017-Oct-15 20:30N 47°18' W 002°06'0 0.0
2017-Oct-15 19:54N 47°18' W 002°06'0 0.0
2017-Oct-15 19:30N 47°18' W 002°06'0 0.0
2017-Oct-15 18:48N 47°18' W 002°06'0 0.0
2017-Oct-15 18:27N 47°18' W 002°06'0 0.0
2017-Oct-15 18:00N 47°18' W 002°06'0 0.0
2017-Oct-15 17:30N 47°18' W 002°06'0 0.0
2017-Oct-15 17:00N 47°18' W 002°06'0 0.0
2017-Oct-15 16:30N 47°18' W 002°06'0 0.0
2017-Oct-15 15:57N 47°18' W 002°06'0 0.0
2017-Oct-15 15:30N 47°18' W 002°06'0 0.0
2017-Oct-15 14:57N 47°18' W 002°06'0 0.0
2017-Oct-15 14:00N 47°18' W 002°06'0 0.0
2017-Oct-15 13:27N 47°18' W 002°06'0 0.0
2017-Oct-15 12:54N 47°18' W 002°06'0 0.0
2017-Oct-15 12:21N 47°18' W 002°06'0 0.0
2017-Oct-15 11:57N 47°18' W 002°06'0 0.0
2017-Oct-15 11:30N 47°18' W 002°06'0 0.0
2017-Oct-15 11:00N 47°18' W 002°06'0 0.0
2017-Oct-15 09:09N 47°18' W 002°06'0 0.0
2017-Oct-15 09:00N 47°18' W 002°06'0 0.0
2017-Oct-15 08:24N 47°18' W 002°06'0 0.0
2017-Oct-15 07:54N 47°18' W 002°06'0 0.0
2017-Oct-15 07:30N 47°18' W 002°06'0 0.0
2017-Oct-15 07:00N 47°18' W 002°06'0 0.0
2017-Oct-15 06:24N 47°18' W 002°06'0 0.0
2017-Oct-15 06:00N 47°18' W 002°06'0 0.0
2017-Oct-15 05:30N 47°18' W 002°06'0 0.0
2017-Oct-15 05:00N 47°18' W 002°06'0 0.0
2017-Oct-15 04:30N 47°18' W 002°06'0 0.0
2017-Oct-15 04:00N 47°18' W 002°06'0 0.0
2017-Oct-15 03:24N 47°18' W 002°06'0 0.0
2017-Oct-15 02:45N 47°18' W 002°06'0 0.0
2017-Oct-15 02:30N 47°18' W 002°06'0 0.0
2017-Oct-15 01:48N 47°18' W 002°06'0 0.0
2017-Oct-15 01:18N 47°18' W 002°06'0 0.0
2017-Oct-15 01:00N 47°18' W 002°06'0 0.0
2017-Oct-15 00:30N 47°18' W 002°06'0 0.0
2017-Oct-15 00:00N 47°18' W 002°06'0 0.0
2017-Oct-14 23:30N 47°18' W 002°06'0 0.0
2017-Oct-14 21:48N 47°18' W 002°06'0 0.0
2017-Oct-14 21:24N 47°18' W 002°06'0 0.0
2017-Oct-14 21:00N 47°18' W 002°06'0 0.0
2017-Oct-14 20:24N 47°18' W 002°06'0 0.0
2017-Oct-14 20:00N 47°18' W 002°06'0 0.0
2017-Oct-14 19:30N 47°18' W 002°06'0 0.0
2017-Oct-14 19:00N 47°18' W 002°06'0 0.0
2017-Oct-14 18:24N 47°18' W 002°06'0 0.0
2017-Oct-14 17:54N 47°18' W 002°06'0 0.0
2017-Oct-14 17:27N 47°18' W 002°06'0 0.0
2017-Oct-14 16:18N 47°18' W 002°06'0 0.0
2017-Oct-14 15:42N 47°18' W 002°06'0 0.0
2017-Oct-14 15:15N 47°18' W 002°06'0 0.0
2017-Oct-14 15:00N 47°18' W 002°06'0 0.0
2017-Oct-14 14:24N 47°18' W 002°06'0 0.0
2017-Oct-14 13:51N 47°18' W 002°06'0 0.0
2017-Oct-14 13:30N 47°18' W 002°06'0 0.0
2017-Oct-14 12:57N 47°18' W 002°06'0 0.0
2017-Oct-14 12:27N 47°18' W 002°06'0 0.0
2017-Oct-14 11:45N 47°18' W 002°06'0 0.0
2017-Oct-14 11:12N 47°18' W 002°06'0 0.0
2017-Oct-14 10:57N 47°18' W 002°06'0 0.0
2017-Oct-14 09:48N 47°18' W 002°06'0 0.0
2017-Oct-14 09:09N 47°18' W 002°06'0 0.0
2017-Oct-14 09:00N 47°18' W 002°06'0 0.0
2017-Oct-14 08:30N 47°18' W 002°06'0 0.0
2017-Oct-14 08:00N 47°18' W 002°06'0 0.0
2017-Oct-14 07:30N 47°18' W 002°06'0 0.0
2017-Oct-14 07:00N 47°18' W 002°06'0 0.0
2017-Oct-14 06:30N 47°18' W 002°06'0 0.0
2017-Oct-14 06:00N 47°18' W 002°06'0 0.0
2017-Oct-14 05:30N 47°18' W 002°06'0 0.0
2017-Oct-14 04:57N 47°18' W 002°06'0 0.0
2017-Oct-14 04:27N 47°18' W 002°06'0 0.0
2017-Oct-14 03:57N 47°18' W 002°06'0 0.0
2017-Oct-14 03:30N 47°18' W 002°06'0 0.0
2017-Oct-14 02:57N 47°18' W 002°06'0 0.0
2017-Oct-14 02:30N 47°18' W 002°06'0 0.0
2017-Oct-14 02:00N 47°18' W 002°06'0 0.0
2017-Oct-14 01:24N 47°18' W 002°06'0 0.0
2017-Oct-14 00:54N 47°18' W 002°06'0 0.0
2017-Oct-14 00:30N 47°18' W 002°06'0 0.0
2017-Oct-13 23:36N 47°18' W 002°06'0 0.0
2017-Oct-13 23:30N 47°18' W 002°06'0 0.0
2017-Oct-13 23:00N 47°18' W 002°06'0 0.1
2017-Oct-13 22:30N 47°18' W 002°06'3 5.2
2017-Oct-13 22:00N 47°18' W 002°09'612.0
2017-Oct-13 21:31N 47°14' W 002°16'713.1
2017-Oct-13 21:00N 47°08' W 002°21'5 9.1
2017-Oct-13 20:30N 47°08' W 002°28'0 0.4
2017-Oct-13 19:58N 47°08' W 002°28'0 0.0
2017-Oct-13 19:28N 47°08' W 002°28'0 0.0
2017-Oct-13 18:58N 47°08' W 002°28'0 0.0
2017-Oct-13 18:28N 47°08' W 002°28'0 0.0
2017-Oct-13 17:58N 47°08' W 002°28'0 0.0
2017-Oct-13 17:28N 47°08' W 002°28'0 0.0
2017-Oct-13 16:58N 47°08' W 002°28'0 0.2
2017-Oct-13 16:28N 47°08' W 002°28'0 0.2
2017-Oct-13 15:58N 47°08' W 002°28'0 0.1
2017-Oct-13 15:28N 47°08' W 002°28'0 0.0
2017-Oct-13 14:58N 47°08' W 002°28'0 0.0
2017-Oct-13 14:28N 47°08' W 002°28'0 0.0
2017-Oct-13 13:58N 47°08' W 002°28'0 0.0
2017-Oct-13 13:25N 47°08' W 002°28'0 0.0
2017-Oct-13 12:58N 47°08' W 002°28'0 0.1
2017-Oct-13 12:28N 47°08' W 002°28'0 0.1
2017-Oct-13 11:58N 47°08' W 002°28'0 0.2
2017-Oct-13 11:28N 47°08' W 002°28'0 0.1
2017-Oct-13 10:58N 47°08' W 002°28'0 0.0
2017-Oct-13 10:25N 47°08' W 002°28'0 0.0
2017-Oct-13 09:58N 47°08' W 002°28'0 0.0
2017-Oct-13 09:28N 47°08' W 002°28'0 0.0
2017-Oct-13 08:58N 47°08' W 002°28'0 0.0
2017-Oct-13 08:28N 47°08' W 002°28'0 0.0
2017-Oct-13 07:58N 47°08' W 002°28'0 0.0
2017-Oct-13 07:28N 47°08' W 002°28'0 0.0
2017-Oct-13 06:52N 47°08' W 002°28'0 0.1
2017-Oct-13 06:28N 47°08' W 002°28'0 0.0
2017-Oct-13 05:55N 47°08' W 002°28'0 0.0
2017-Oct-13 05:28N 47°08' W 002°28'0 0.0
2017-Oct-13 04:58N 47°08' W 002°28'0 0.0
2017-Oct-13 04:28N 47°08' W 002°28'0 0.1
2017-Oct-13 03:52N 47°08' W 002°28'0 0.2
2017-Oct-13 03:25N 47°08' W 002°28'0 0.1
2017-Oct-13 02:58N 47°08' W 002°28'0 0.0
2017-Oct-13 02:25N 47°08' W 002°28'0 0.1
2017-Oct-13 01:55N 47°08' W 002°28'0 0.1
2017-Oct-13 01:28N 47°08' W 002°28'0 0.1
2017-Oct-13 00:58N 47°08' W 002°28'0 0.0
2017-Oct-13 00:28N 47°08' W 002°28'0 0.1
2017-Oct-12 23:58N 47°08' W 002°28'0 0.1
2017-Oct-12 23:28N 47°08' W 002°28'0 0.0
2017-Oct-12 22:58N 47°08' W 002°28'0 0.0
2017-Oct-12 22:28N 47°08' W 002°28'0 0.0
2017-Oct-12 21:58N 47°08' W 002°28'0 0.0
2017-Oct-12 21:28N 47°08' W 002°28'0 0.0
2017-Oct-12 20:58N 47°08' W 002°28'0 0.0
2017-Oct-12 20:28N 47°08' W 002°28'0 0.0
2017-Oct-12 19:58N 47°08' W 002°28'0 0.0
2017-Oct-12 19:28N 47°08' W 002°28'0 0.0
2017-Oct-12 18:58N 47°08' W 002°28'0 0.0
2017-Oct-12 18:28N 47°08' W 002°28'0 0.0
2017-Oct-12 17:58N 47°08' W 002°28'0 0.2
2017-Oct-12 17:30N 47°08' W 002°28'3 5.9
2017-Oct-12 17:00N 47°07' W 002°32'713.8
2017-Oct-12 16:30N 47°04' W 002°41'713.0
2017-Oct-12 16:00N 47°02' W 002°50'713.4
2017-Oct-12 15:31N 47°02' W 002°60'713.9
2017-Oct-12 15:00N 47°04' W 003°10'713.1
2017-Oct-12 14:30N 47°06' W 003°19'612.7
2017-Oct-12 14:00N 47°09' W 003°27'612.9
2017-Oct-12 13:30N 47°12' W 003°36'612.7
2017-Oct-12 13:00N 47°15' W 003°44'713.0
2017-Oct-12 12:30N 47°18' W 003°53'713.3
2017-Oct-12 12:00N 47°20' W 004°01'713.5
2017-Oct-12 11:30N 47°23' W 004°10'713.9
2017-Oct-12 11:00N 47°28' W 004°18'2014.2
2017-Oct-12 09:34N 47°39' W 004°44'314.3
2017-Oct-12 09:22N 47°40' W 004°48'514.1
2017-Oct-12 09:00N 47°42' W 004°54'713.9
2017-Oct-12 08:30N 47°46' W 005°03'813.4
2017-Oct-12 07:57N 47°49' W 005°13'813.4
2017-Oct-12 07:22N 47°54' W 005°23'513.1
2017-Oct-12 07:01N 47°56' W 005°29'813.3
2017-Oct-12 06:26N 47°59' W 005°39'512.7
2017-Oct-12 06:00N 48°04' W 005°44'612.7
2017-Oct-12 05:30N 48°10' W 005°46'613.0
2017-Oct-12 05:00N 48°16' W 005°48'1013.2
2017-Oct-12 04:16N 48°26' W 005°52'413.3
2017-Oct-12 04:00N 48°29' W 005°53'713.6
2017-Oct-12 03:29N 48°36' W 005°55'1513.3
2017-Oct-12 02:24N 48°50' W 005°48'813.6
2017-Oct-12 01:50N 48°56' W 005°41'513.8
2017-Oct-12 01:28N 48°58' W 005°35'1412.2
2017-Oct-12 00:20N 49°06' W 005°17'611.8
2017-Oct-11 23:51N 49°09' W 005°09'512.6
2017-Oct-11 23:25N 49°10' W 005°01'512.8
2017-Oct-11 23:00N 49°13' W 004°55'612.5
2017-Oct-11 22:30N 49°17' W 004°47'4111.7
2017-Oct-11 19:00N 49°37' W 003°52'912.5
2017-Oct-11 18:15N 49°43' W 003°40'312.8
2017-Oct-11 18:00N 49°44' W 003°36'612.9
2017-Oct-11 17:30N 49°48' W 003°28'713.2
2017-Oct-11 16:58N 49°51' W 003°18'19911.7
2017-Oct-11 00:00N 51°06' E 001°32'714.8
2017-Oct-10 23:30N 51°11' E 001°41'715.0
2017-Oct-10 23:00N 51°16' E 001°49'714.8
2017-Oct-10 22:30N 51°23' E 001°53'714.2
2017-Oct-10 22:01N 51°28' E 002°01'713.5
2017-Oct-10 21:30N 51°34' E 002°08'613.0
2017-Oct-10 21:00N 51°38' E 002°15'612.6
2017-Oct-10 20:30N 51°43' E 002°22'3911.2
2017-Oct-10 16:58N 52°04' E 003°16'611.8
2017-Oct-10 16:30N 52°04' E 003°25'611.6
2017-Oct-10 16:00N 52°04' E 003°34'510.5
2017-Oct-10 15:30N 52°08' E 003°41'1 2.1
2017-Oct-10 14:58N 52°09' E 003°41'0 0.0
2017-Oct-10 13:55N 52°09' E 003°41'0 0.1
2017-Oct-10 12:40N 52°09' E 003°41'0 0.1
2017-Oct-10 12:28N 52°09' E 003°41'0 0.1
2017-Oct-10 11:58N 52°09' E 003°41'2 5.1
2017-Oct-10 11:30N 52°07' E 003°43'510.1
2017-Oct-10 11:00N 52°03' E 003°49'4 8.2
2017-Oct-10 10:30N 52°02' E 003°55'714.0
2017-Oct-10 10:00N 51°59' E 004°06'5 9.1
2017-Oct-10 09:31N 51°56' E 004°12'1 1.1
2017-Oct-10 09:00N 51°56' E 004°12'0 0.0
2017-Oct-10 08:30N 51°56' E 004°12'0 0.0
2017-Oct-10 08:00N 51°56' E 004°12'0 0.0
2017-Oct-10 07:30N 51°56' E 004°12'0 0.0
2017-Oct-10 07:00N 51°56' E 004°12'0 0.0
2017-Oct-10 06:30N 51°56' E 004°12'0 0.0
2017-Oct-10 06:00N 51°56' E 004°12'0 0.0
2017-Oct-10 05:30N 51°56' E 004°12'0 0.0
2017-Oct-10 04:57N 51°56' E 004°12'0 0.0
2017-Oct-10 04:27N 51°56' E 004°12'0 0.0
2017-Oct-10 04:00N 51°56' E 004°12'0 0.0
2017-Oct-10 03:30N 51°56' E 004°12'0 0.0
2017-Oct-10 02:57N 51°56' E 004°12'0 0.0
2017-Oct-10 02:30N 51°56' E 004°12'0 0.0
2017-Oct-10 01:57N 51°56' E 004°12'0 0.0
2017-Oct-10 01:30N 51°56' E 004°12'0 0.0
2017-Oct-10 01:00N 51°56' E 004°12'0 0.0
2017-Oct-10 00:30N 51°56' E 004°12'0 0.0
2017-Oct-10 00:00N 51°56' E 004°12'0 0.0
2017-Oct-09 23:30N 51°56' E 004°12'0 0.0
2017-Oct-09 23:00N 51°56' E 004°12'0 0.0
2017-Oct-09 22:30N 51°56' E 004°12'0 0.0
2017-Oct-09 21:57N 51°56' E 004°12'0 0.0
2017-Oct-09 21:24N 51°56' E 004°12'0 0.0
2017-Oct-09 21:00N 51°56' E 004°12'0 0.0
2017-Oct-09 20:30N 51°56' E 004°12'0 0.0
2017-Oct-09 20:00N 51°56' E 004°12'0 0.0
2017-Oct-09 19:30N 51°56' E 004°12'0 0.0
2017-Oct-09 19:00N 51°56' E 004°12'0 0.0
2017-Oct-09 18:27N 51°56' E 004°12'0 0.0
2017-Oct-09 18:00N 51°56' E 004°12'0 0.0
2017-Oct-09 17:30N 51°56' E 004°12'0 0.0
2017-Oct-09 17:00N 51°56' E 004°12'0 0.0
2017-Oct-09 16:30N 51°56' E 004°12'0 0.0
2017-Oct-09 16:00N 51°56' E 004°12'0 0.0
2017-Oct-09 15:30N 51°56' E 004°12'0 0.0
2017-Oct-09 15:00N 51°56' E 004°12'0 0.0
2017-Oct-09 14:30N 51°56' E 004°12'0 0.0
2017-Oct-09 14:00N 51°56' E 004°12'0 0.0
2017-Oct-09 13:30N 51°56' E 004°12'0 0.0
2017-Oct-09 13:00N 51°56' E 004°12'0 0.0
2017-Oct-09 12:30N 51°56' E 004°12'0 0.0
2017-Oct-09 12:00N 51°56' E 004°12'0 0.0
2017-Oct-09 11:30N 51°56' E 004°12'0 0.0
2017-Oct-09 10:57N 51°56' E 004°12'0 0.3
2017-Oct-09 10:31N 51°56' E 004°12'3 6.3
2017-Oct-09 10:00N 51°58' E 004°08'510.2
2017-Oct-09 09:30N 51°60' E 004°00'611.5
2017-Oct-09 09:00N 51°60' E 003°51'3 5.6
2017-Oct-09 08:30N 51°58' E 003°47'1 1.2
2017-Oct-09 07:52N 51°57' E 003°47'0 0.1
2017-Oct-09 07:28N 51°57' E 003°47'0 0.1
2017-Oct-09 06:43N 51°57' E 003°47'0 0.0
2017-Oct-09 06:19N 51°57' E 003°47'0 0.0
2017-Oct-09 05:58N 51°57' E 003°47'0 0.0
2017-Oct-09 05:28N 51°57' E 003°47'0 0.0
2017-Oct-09 04:58N 51°57' E 003°47'0 0.0
2017-Oct-09 04:28N 51°57' E 003°47'0 0.0
2017-Oct-09 03:58N 51°57' E 003°47'0 0.0
2017-Oct-09 03:22N 51°57' E 003°47'0 0.0
2017-Oct-09 02:58N 51°57' E 003°47'0 0.0
2017-Oct-09 02:28N 51°57' E 003°47'0 0.3
2017-Oct-09 01:46N 51°57' E 003°47'0 0.1
2017-Oct-09 01:28N 51°57' E 003°47'0 0.0
2017-Oct-09 00:55N 51°57' E 003°47'0 0.0
2017-Oct-09 00:25N 51°57' E 003°47'0 0.0
2017-Oct-08 23:58N 51°57' E 003°47'0 0.0
2017-Oct-08 23:28N 51°57' E 003°47'0 0.0
2017-Oct-08 22:58N 51°57' E 003°47'0 0.0
2017-Oct-08 22:25N 51°57' E 003°47'0 0.0
2017-Oct-08 21:58N 51°57' E 003°47'0 0.0
2017-Oct-08 21:25N 51°57' E 003°47'0 0.0
2017-Oct-08 20:52N 51°57' E 003°47'0 0.0
2017-Oct-08 20:28N 51°57' E 003°47'0 0.1
2017-Oct-08 19:58N 51°57' E 003°47'0 0.2
2017-Oct-08 19:07N 51°57' E 003°47'0 0.2
2017-Oct-08 18:58N 51°57' E 003°47'0 0.1
2017-Oct-08 18:28N 51°57' E 003°47'0 0.0
2017-Oct-08 17:58N 51°57' E 003°47'0 0.0
2017-Oct-08 17:28N 51°57' E 003°47'0 0.0
2017-Oct-08 16:52N 51°57' E 003°47'0 0.0
2017-Oct-08 16:28N 51°57' E 003°47'0 0.0
2017-Oct-08 15:55N 51°57' E 003°47'0 0.1
2017-Oct-08 15:28N 51°57' E 003°47'0 0.0
2017-Oct-08 14:55N 51°57' E 003°47'0 0.1
2017-Oct-08 14:28N 51°57' E 003°47'0 0.3
2017-Oct-08 13:52N 51°57' E 003°47'0 0.3
2017-Oct-08 13:28N 51°57' E 003°47'0 0.1
2017-Oct-08 12:58N 51°57' E 003°47'0 0.1
2017-Oct-08 12:28N 51°57' E 003°47'0 0.0
2017-Oct-08 11:58N 51°57' E 003°47'0 0.0
2017-Oct-08 11:25N 51°57' E 003°47'0 0.0
2017-Oct-08 10:46N 51°57' E 003°47'0 0.0
2017-Oct-08 10:22N 51°57' E 003°47'0 0.0
2017-Oct-08 09:55N 51°57' E 003°47'0 0.0
2017-Oct-08 09:28N 51°57' E 003°47'0 0.0
2017-Oct-08 08:58N 51°57' E 003°47'0 0.1
2017-Oct-08 08:28N 51°57' E 003°47'0 0.1
2017-Oct-08 07:55N 51°57' E 003°47'0 0.1
2017-Oct-08 07:16N 51°57' E 003°47'0 0.1
2017-Oct-08 06:58N 51°57' E 003°47'0 0.0
2017-Oct-08 06:25N 51°57' E 003°47'0 0.1
2017-Oct-08 05:55N 51°57' E 003°47'0 0.1
2017-Oct-08 05:22N 51°57' E 003°47'0 0.1
2017-Oct-08 04:52N 51°57' E 003°47'0 0.0
2017-Oct-08 04:28N 51°57' E 003°47'0 0.0
2017-Oct-08 03:58N 51°57' E 003°47'0 0.0
2017-Oct-08 03:25N 51°57' E 003°47'0 0.1
2017-Oct-08 02:55N 51°57' E 003°47'0 0.1
2017-Oct-08 02:19N 51°57' E 003°47'0 0.2
2017-Oct-08 01:58N 51°57' E 003°47'0 0.1
2017-Oct-08 01:19N 51°57' E 003°47'0 0.1
2017-Oct-08 00:55N 51°57' E 003°47'0 0.1
2017-Oct-08 00:25N 51°57' E 003°47'0 0.1
2017-Oct-07 23:52N 51°57' E 003°47'0 0.1
2017-Oct-07 23:28N 51°57' E 003°47'0 0.0
2017-Oct-07 22:58N 51°57' E 003°47'0 0.1
2017-Oct-07 22:28N 51°57' E 003°47'0 0.0
2017-Oct-07 21:58N 51°57' E 003°47'0 0.0
2017-Oct-07 21:22N 51°57' E 003°47'0 0.1
2017-Oct-07 20:58N 51°57' E 003°47'0 0.1
2017-Oct-07 20:25N 51°57' E 003°47'0 0.1
2017-Oct-07 19:58N 51°57' E 003°47'0 0.1
2017-Oct-07 19:28N 51°57' E 003°47'0 0.0
2017-Oct-07 18:58N 51°57' E 003°47'0 0.1
2017-Oct-07 18:25N 51°57' E 003°47'0 0.1
2017-Oct-07 17:58N 51°57' E 003°47'0 0.1
2017-Oct-07 17:19N 51°57' E 003°47'0 0.1
2017-Oct-07 16:58N 51°57' E 003°47'0 0.0
2017-Oct-07 16:28N 51°57' E 003°47'0 0.0
2017-Oct-07 15:58N 51°57' E 003°47'  

Dump ship's entire track history